createdAt,value
2022-09-24T00:00:27.253Z,95.41
2022-09-24T00:01:27.366Z,95.41
2022-09-24T00:02:27.271Z,95.51
2022-09-24T00:03:27.563Z,95.51
2022-09-24T00:04:27.228Z,95.62
2022-09-24T00:05:27.203Z,95.72
2022-09-24T00:06:27.201Z,95.72
2022-09-24T00:07:27.161Z,95.72
2022-09-24T00:08:27.586Z,95.62
2022-09-24T00:09:27.130Z,95.62
2022-09-24T00:10:27.131Z,95.72
2022-09-24T00:11:27.112Z,95.72
2022-09-24T00:12:27.108Z,95.67
2022-09-24T00:13:27.510Z,95.57
2022-09-24T00:14:27.079Z,95.37
2022-09-24T00:15:27.061Z,95.26
2022-09-24T00:16:27.120Z,95.17
2022-09-24T00:17:27.029Z,95.17
2022-09-24T00:18:27.402Z,95.06
2022-09-24T00:19:27.009Z,95.17
2022-09-24T00:20:26.998Z,95.17
2022-09-24T00:21:26.979Z,95.17
2022-09-24T00:22:26.976Z,95.17
2022-09-24T00:23:27.377Z,95.17
2022-09-24T00:24:26.938Z,95.06
2022-09-24T00:25:26.944Z,94.96
2022-09-24T00:26:26.925Z,94.85
2022-09-24T00:27:26.906Z,94.85
2022-09-24T00:28:27.206Z,94.96
2022-09-24T00:29:26.876Z,94.96
2022-09-24T00:30:26.869Z,94.96
2022-09-24T00:31:26.923Z,94.96
2022-09-24T00:32:26.837Z,95.06
2022-09-24T00:33:27.192Z,95.06
2022-09-24T00:34:26.823Z,95.06
2022-09-24T00:35:26.812Z,94.96
2022-09-24T00:36:26.784Z,94.90
2022-09-24T00:37:26.775Z,94.80
2022-09-24T00:38:27.196Z,94.90
2022-09-24T00:39:26.753Z,95.00
2022-09-24T00:40:26.764Z,95.00
2022-09-24T00:41:26.736Z,95.00
2022-09-24T00:42:26.713Z,95.00
2022-09-24T00:43:26.712Z,95.05
2022-09-24T00:44:27.116Z,95.05
2022-09-24T00:45:26.673Z,95.25
2022-09-24T00:46:26.736Z,95.25
2022-09-24T00:47:26.652Z,95.36
2022-09-24T00:48:26.641Z,95.36
2022-09-24T00:49:27.004Z,95.46
2022-09-24T00:50:26.627Z,95.46
2022-09-24T00:51:26.593Z,95.46
2022-09-24T00:52:26.591Z,95.46
2022-09-24T00:53:26.579Z,95.56
2022-09-24T00:54:26.979Z,95.66
2022-09-24T00:55:26.558Z,95.70
2022-09-24T00:56:26.541Z,95.70
2022-09-24T00:57:26.521Z,95.91
2022-09-24T00:58:33.500Z,95.91
2022-09-24T00:59:33.878Z,95.81
2022-09-24T01:00:26.562Z,95.91
2022-09-24T01:01:26.529Z,95.81
2022-09-24T01:02:26.499Z,95.81
2022-09-24T01:03:33.445Z,95.81
2022-09-24T01:04:26.775Z,95.91
2022-09-24T01:05:26.417Z,95.91
2022-09-24T01:06:26.413Z,95.91
2022-09-24T01:07:26.414Z,95.91
2022-09-24T01:08:26.383Z,95.91
2022-09-24T01:09:26.825Z,95.81
2022-09-24T01:10:26.354Z,95.75
2022-09-24T01:11:26.344Z,95.86
2022-09-24T01:12:26.330Z,95.95
2022-09-24T01:13:26.315Z,95.95
2022-09-24T01:14:26.715Z,96.06
2022-09-24T01:15:26.293Z,96.06
2022-09-24T01:16:26.336Z,96.16
2022-09-24T01:17:26.266Z,96.20
2022-09-24T01:18:26.250Z,96.31
2022-09-24T01:19:26.591Z,96.41
2022-09-24T01:20:26.221Z,96.41
2022-09-24T01:21:26.212Z,96.51
2022-09-24T01:22:26.193Z,96.62
2022-09-24T01:23:26.184Z,96.62
2022-09-24T01:24:26.610Z,96.62
2022-09-24T01:25:26.161Z,96.66
2022-09-24T01:26:26.149Z,96.56
2022-09-24T01:27:26.133Z,96.56
2022-09-24T01:28:26.120Z,96.87
2022-09-24T01:29:26.522Z,96.97
2022-09-24T01:30:26.100Z,97.07
2022-09-24T01:31:26.139Z,97.28
2022-09-24T01:32:31.597Z,97.28
2022-09-24T01:33:27.061Z,97.28
2022-09-24T01:34:26.376Z,97.28
2022-09-24T01:35:26.037Z,97.28
2022-09-24T01:36:26.016Z,97.38
2022-09-24T01:37:26.006Z,97.38
2022-09-24T01:38:25.986Z,97.28
2022-09-24T01:39:26.409Z,97.32
2022-09-24T01:40:25.994Z,97.28
2022-09-24T01:41:25.953Z,97.38
2022-09-24T01:42:25.948Z,97.58
2022-09-24T01:43:25.936Z,97.58
2022-09-24T01:44:26.267Z,97.69
2022-09-24T01:45:25.897Z,97.69
2022-09-24T01:46:25.969Z,97.58
2022-09-24T01:47:26.055Z,97.58
2022-09-24T01:48:25.856Z,97.53
2022-09-24T01:49:26.279Z,97.42
2022-09-24T01:50:25.838Z,97.42
2022-09-24T01:51:25.813Z,97.42
2022-09-24T01:52:25.802Z,97.42
2022-09-24T01:53:25.802Z,97.32
2022-09-24T01:54:26.196Z,97.06
2022-09-24T01:55:25.770Z,97.16
2022-09-24T01:56:25.762Z,97.27
2022-09-24T01:57:25.742Z,97.37
2022-09-24T01:58:25.732Z,97.37
2022-09-24T01:59:26.081Z,97.47
2022-09-24T02:00:25.703Z,97.47
2022-09-24T02:01:25.754Z,97.67
2022-09-24T02:02:25.710Z,97.78
2022-09-24T02:03:25.662Z,97.83
2022-09-24T02:04:26.081Z,97.88
2022-09-24T02:05:25.637Z,97.78
2022-09-24T02:06:25.628Z,97.67
2022-09-24T02:07:25.631Z,97.57
2022-09-24T02:08:25.597Z,97.57
2022-09-24T02:09:25.967Z,97.52
2022-09-24T02:10:25.569Z,97.41
2022-09-24T02:11:25.569Z,97.52
2022-09-24T02:12:25.539Z,97.62
2022-09-24T02:13:25.543Z,97.52
2022-09-24T02:14:25.849Z,97.52
2022-09-24T02:15:28.941Z,97.52
2022-09-24T02:16:26.541Z,97.62
2022-09-24T02:17:25.488Z,97.62
2022-09-24T02:18:25.480Z,97.82
2022-09-24T02:19:25.887Z,97.82
2022-09-24T02:20:25.443Z,97.82
2022-09-24T02:21:25.430Z,97.72
2022-09-24T02:22:25.431Z,97.56
2022-09-24T02:23:25.407Z,97.56
2022-09-24T02:24:25.386Z,97.66
2022-09-24T02:25:25.802Z,97.82
2022-09-24T02:26:25.365Z,98.03
2022-09-24T02:27:25.358Z,98.03
2022-09-24T02:28:25.345Z,98.03
2022-09-24T02:29:25.665Z,98.03
2022-09-24T02:30:25.337Z,98.03
2022-09-24T02:31:25.362Z,98.03
2022-09-24T02:32:25.294Z,98.03
2022-09-24T02:33:25.280Z,98.03
2022-09-24T02:34:25.277Z,98.03
2022-09-24T02:35:25.671Z,98.13
2022-09-24T02:36:25.251Z,98.13
2022-09-24T02:37:25.229Z,98.13
2022-09-24T02:38:25.222Z,98.24
2022-09-24T02:39:25.552Z,98.24
2022-09-24T02:40:25.230Z,98.24
2022-09-24T02:41:25.175Z,98.29
2022-09-24T02:42:25.157Z,98.39
2022-09-24T02:43:25.148Z,98.50
2022-09-24T02:44:25.137Z,98.50
2022-09-24T02:45:25.540Z,98.45
2022-09-24T02:46:25.162Z,98.45
2022-09-24T02:47:25.080Z,98.55
2022-09-24T02:48:25.072Z,98.66
2022-09-24T02:49:25.466Z,98.76
2022-09-24T02:50:25.051Z,98.76
2022-09-24T02:51:25.029Z,98.66
2022-09-24T02:52:25.020Z,98.66
2022-09-24T02:53:25.010Z,98.66
2022-09-24T02:54:24.998Z,98.66
2022-09-24T02:55:25.348Z,98.55
2022-09-24T02:56:24.969Z,98.66
2022-09-24T02:57:24.958Z,98.66
2022-09-24T02:58:24.941Z,98.66
2022-09-24T02:59:25.364Z,98.66
2022-09-24T03:00:24.918Z,98.76
2022-09-24T03:01:24.972Z,98.71
2022-09-24T03:02:24.984Z,98.71
2022-09-24T03:03:24.885Z,98.61
2022-09-24T03:04:25.283Z,98.61
2022-09-24T03:05:24.853Z,98.61
2022-09-24T03:06:24.849Z,98.61
2022-09-24T03:07:24.835Z,98.71
2022-09-24T03:08:24.811Z,98.71
2022-09-24T03:09:25.188Z,98.71
2022-09-24T03:10:24.793Z,98.71
2022-09-24T03:11:24.774Z,98.67
2022-09-24T03:12:24.775Z,98.67
2022-09-24T03:13:24.749Z,98.67
2022-09-24T03:14:25.164Z,98.67
2022-09-24T03:15:24.723Z,98.67
2022-09-24T03:16:24.808Z,98.67
2022-09-24T03:17:24.703Z,98.57
2022-09-24T03:18:24.690Z,98.57
2022-09-24T03:19:25.114Z,98.57
2022-09-24T03:20:24.653Z,98.57
2022-09-24T03:21:24.669Z,98.46
2022-09-24T03:22:24.644Z,98.46
2022-09-24T03:23:24.618Z,98.46
2022-09-24T03:24:24.993Z,98.36
2022-09-24T03:25:24.590Z,98.36
2022-09-24T03:26:24.575Z,98.36
2022-09-24T03:27:24.578Z,98.36
2022-09-24T03:28:24.547Z,98.36
2022-09-24T03:29:24.970Z,98.25
2022-09-24T03:30:24.520Z,98.25
2022-09-24T03:31:24.599Z,98.25
2022-09-24T03:32:24.500Z,98.16
2022-09-24T03:33:24.907Z,98.16
2022-09-24T03:34:31.475Z,98.05
2022-09-24T03:35:31.462Z,98.05
2022-09-24T03:36:31.438Z,98.05
2022-09-24T03:37:24.430Z,98.05
2022-09-24T03:38:24.408Z,98.05
2022-09-24T03:39:24.787Z,98.05
2022-09-24T03:40:24.429Z,98.05
2022-09-24T03:41:24.379Z,98.05
2022-09-24T03:42:24.367Z,98.05
2022-09-24T03:43:24.368Z,98.05
2022-09-24T03:44:24.768Z,98.00
2022-09-24T03:45:24.338Z,98.00
2022-09-24T03:46:24.376Z,98.11
2022-09-24T03:47:24.303Z,98.11
2022-09-24T03:48:24.299Z,98.11
2022-09-24T03:49:24.716Z,98.11
2022-09-24T03:50:24.256Z,98.11
2022-09-24T03:51:24.255Z,98.07
2022-09-24T03:52:24.235Z,97.96
2022-09-24T03:53:24.235Z,97.96
2022-09-24T03:54:24.642Z,97.96
2022-09-24T03:55:24.207Z,97.75
2022-09-24T03:56:24.183Z,97.49
2022-09-24T03:57:24.183Z,97.29
2022-09-24T03:58:24.162Z,97.19
2022-09-24T03:59:24.505Z,97.14
2022-09-24T04:00:24.160Z,97.04
2022-09-24T04:01:24.183Z,97.04
2022-09-24T04:02:24.147Z,96.94
2022-09-24T04:03:24.222Z,96.83
2022-09-24T04:04:24.514Z,96.73
2022-09-24T04:05:24.071Z,96.73
2022-09-24T04:06:26.045Z,96.83
2022-09-24T04:07:24.052Z,96.83
2022-09-24T04:08:24.031Z,96.83
2022-09-24T04:09:24.471Z,96.83
2022-09-24T04:10:24.019Z,96.83
2022-09-24T04:11:24.003Z,96.83
2022-09-24T04:12:23.984Z,96.83
2022-09-24T04:13:23.978Z,96.83
2022-09-24T04:14:24.389Z,96.83
2022-09-24T04:15:23.949Z,96.83
2022-09-24T04:16:24.044Z,96.83
2022-09-24T04:17:23.918Z,96.83
2022-09-24T04:18:23.900Z,96.83
2022-09-24T04:19:24.223Z,96.83
2022-09-24T04:20:23.879Z,96.83
2022-09-24T04:21:23.869Z,96.83
2022-09-24T04:22:23.851Z,96.83
2022-09-24T04:23:23.837Z,96.83
2022-09-24T04:24:23.831Z,96.94
2022-09-24T04:25:24.127Z,97.04
2022-09-24T04:26:23.798Z,97.04
2022-09-24T04:27:23.789Z,97.14
2022-09-24T04:28:23.779Z,97.14
2022-09-24T04:29:24.196Z,97.14
2022-09-24T04:30:23.754Z,97.14
2022-09-24T04:31:23.861Z,97.14
2022-09-24T04:32:23.732Z,97.24
2022-09-24T04:33:23.705Z,97.24
2022-09-24T04:34:23.697Z,97.34
2022-09-24T04:35:24.113Z,97.40
2022-09-24T04:36:23.675Z,97.40
2022-09-24T04:37:23.657Z,97.40
2022-09-24T04:38:23.646Z,97.40
2022-09-24T04:39:24.077Z,97.20
2022-09-24T04:40:23.676Z,97.09
2022-09-24T04:41:23.606Z,96.99
2022-09-24T04:42:23.593Z,96.89
2022-09-24T04:43:23.575Z,96.79
2022-09-24T04:44:23.599Z,96.58
2022-09-24T04:45:23.873Z,96.48
2022-09-24T04:46:23.615Z,96.28
2022-09-24T04:47:23.532Z,96.17
2022-09-24T04:48:23.513Z,96.07
2022-09-24T04:49:23.829Z,95.97
2022-09-24T04:50:23.487Z,95.97
2022-09-24T04:51:23.472Z,95.87
2022-09-24T04:52:23.461Z,95.87
2022-09-24T04:53:23.441Z,95.87
2022-09-24T04:54:23.442Z,95.87
2022-09-24T04:55:23.860Z,95.97
2022-09-24T04:56:23.413Z,95.97
2022-09-24T04:57:23.398Z,96.07
2022-09-24T04:58:23.392Z,96.07
2022-09-24T04:59:23.818Z,96.07
2022-09-24T05:00:23.359Z,96.07
2022-09-24T05:01:23.385Z,96.17
2022-09-24T05:02:23.436Z,96.07
2022-09-24T05:03:23.327Z,95.97
2022-09-24T05:04:23.310Z,95.87
2022-09-24T05:05:23.692Z,95.76
2022-09-24T05:06:23.279Z,95.66
2022-09-24T05:07:23.286Z,95.66
2022-09-24T05:08:23.260Z,95.66
2022-09-24T05:09:23.699Z,95.66
2022-09-24T05:10:23.228Z,95.76
2022-09-24T05:11:23.215Z,95.87
2022-09-24T05:12:23.215Z,95.97
2022-09-24T05:13:23.187Z,96.07
2022-09-24T05:14:23.176Z,96.07
2022-09-24T05:15:23.538Z,96.17
2022-09-24T05:16:23.412Z,96.17
2022-09-24T05:17:23.134Z,96.17
2022-09-24T05:18:23.126Z,96.17
2022-09-24T05:19:23.428Z,96.17
2022-09-24T05:20:23.103Z,96.17
2022-09-24T05:21:23.082Z,96.28
2022-09-24T05:22:23.077Z,96.28
2022-09-24T05:23:23.054Z,96.28
2022-09-24T05:24:23.054Z,96.38
2022-09-24T05:25:23.425Z,96.28
2022-09-24T05:26:23.033Z,96.28
2022-09-24T05:27:23.006Z,96.28
2022-09-24T05:28:22.999Z,96.28
2022-09-24T05:29:23.412Z,96.28
2022-09-24T05:30:22.972Z,96.28
2022-09-24T05:31:22.997Z,96.28
2022-09-24T05:32:22.951Z,96.28
2022-09-24T05:33:22.931Z,96.17
2022-09-24T05:34:22.932Z,96.07
2022-09-24T05:35:23.404Z,95.97
2022-09-24T05:36:22.901Z,95.92
2022-09-24T05:37:22.887Z,95.82
2022-09-24T05:38:22.869Z,95.72
2022-09-24T05:39:23.199Z,95.62
2022-09-24T05:40:22.903Z,95.51
2022-09-24T05:41:22.831Z,95.51
2022-09-24T05:42:22.822Z,95.41
2022-09-24T05:43:22.810Z,95.41
2022-09-24T05:44:23.179Z,95.31
2022-09-24T05:45:22.781Z,95.31
2022-09-24T05:46:22.827Z,95.31
2022-09-24T05:47:22.751Z,95.41
2022-09-24T05:48:22.849Z,95.31
2022-09-24T05:49:23.158Z,95.41
2022-09-24T05:50:22.723Z,95.51
2022-09-24T05:51:22.707Z,95.41
2022-09-24T05:52:22.724Z,95.41
2022-09-24T05:53:22.676Z,95.41
2022-09-24T05:54:22.987Z,95.31
2022-09-24T05:55:22.667Z,95.21
2022-09-24T05:56:22.647Z,95.21
2022-09-24T05:57:22.640Z,95.06
2022-09-24T05:58:22.629Z,94.96
2022-09-24T05:59:22.975Z,95.06
2022-09-24T06:00:22.586Z,95.17
2022-09-24T06:01:22.845Z,95.06
2022-09-24T06:02:22.659Z,95.06
2022-09-24T06:03:22.626Z,95.06
2022-09-24T06:04:22.976Z,95.02
2022-09-24T06:05:22.596Z,94.92
2022-09-24T06:06:22.522Z,94.71
2022-09-24T06:07:22.503Z,94.51
2022-09-24T06:08:22.487Z,94.51
2022-09-24T06:09:22.845Z,94.51
2022-09-24T06:10:22.571Z,94.30
2022-09-24T06:11:22.467Z,94.30
2022-09-24T06:12:22.443Z,94.20
2022-09-24T06:13:22.428Z,94.20
2022-09-24T06:14:22.849Z,94.26
2022-09-24T06:15:22.391Z,94.26
2022-09-24T06:16:22.480Z,94.26
2022-09-24T06:17:22.372Z,94.46
2022-09-24T06:18:22.375Z,94.46
2022-09-24T06:19:22.738Z,94.46
2022-09-24T06:20:22.355Z,94.46
2022-09-24T06:21:22.321Z,94.32
2022-09-24T06:22:26.285Z,94.21
2022-09-24T06:23:23.304Z,94.11
2022-09-24T06:24:22.281Z,93.91
2022-09-24T06:25:22.474Z,93.80
2022-09-24T06:26:22.261Z,93.70
2022-09-24T06:27:22.249Z,93.29
2022-09-24T06:28:22.230Z,92.99
2022-09-24T06:29:22.573Z,92.84
2022-09-24T06:30:22.211Z,92.74
2022-09-24T06:31:22.244Z,92.64
2022-09-24T06:32:22.178Z,92.54
2022-09-24T06:33:22.170Z,92.43
2022-09-24T06:34:22.157Z,92.13
2022-09-24T06:35:22.177Z,92.02
2022-09-24T06:36:22.127Z,91.88
2022-09-24T06:37:22.119Z,91.78
2022-09-24T06:38:22.098Z,91.78
2022-09-24T06:39:22.517Z,91.63
2022-09-24T06:40:22.164Z,91.63
2022-09-24T06:41:22.056Z,91.63
2022-09-24T06:42:22.044Z,91.59
2022-09-24T06:43:22.042Z,91.49
2022-09-24T06:44:22.038Z,91.18
2022-09-24T06:45:22.358Z,90.98
2022-09-24T06:46:22.045Z,90.98
2022-09-24T06:47:21.987Z,90.88
2022-09-24T06:48:21.975Z,90.88
2022-09-24T06:49:22.313Z,90.77
2022-09-24T06:50:21.946Z,90.98
2022-09-24T06:51:21.933Z,90.73
2022-09-24T06:52:21.915Z,90.63
2022-09-24T06:53:21.908Z,90.32
2022-09-24T06:54:21.895Z,90.42
2022-09-24T06:55:22.315Z,90.32
2022-09-24T06:56:21.877Z,89.51
2022-09-24T06:57:26.586Z,89.51
2022-09-24T06:58:22.853Z,89.10
2022-09-24T06:59:22.153Z,89.10
2022-09-24T07:00:21.810Z,89.00
2022-09-24T07:01:21.864Z,89.10
2022-09-24T07:02:21.941Z,89.20
2022-09-24T07:03:21.778Z,89.20
2022-09-24T07:04:21.763Z,89.20
2022-09-24T07:05:22.072Z,89.30
2022-09-24T07:06:21.743Z,89.61
2022-09-24T07:07:21.725Z,89.61
2022-09-24T07:08:21.722Z,89.51
2022-09-24T07:09:22.104Z,89.61
2022-09-24T07:10:21.692Z,89.30
2022-09-24T07:11:21.673Z,89.00
2022-09-24T07:12:21.671Z,89.36
2022-09-24T07:13:21.655Z,89.36
2022-09-24T07:14:21.992Z,89.06
2022-09-24T07:15:21.637Z,88.96
2022-09-24T07:16:21.632Z,89.06
2022-09-24T07:17:21.600Z,88.92
2022-09-24T07:18:21.584Z,89.01
2022-09-24T07:19:21.609Z,88.92
2022-09-24T07:20:21.563Z,88.71
2022-09-24T07:21:21.540Z,88.40
2022-09-24T07:22:21.569Z,87.90
2022-09-24T07:23:21.512Z,88.00
2022-09-24T07:24:21.861Z,88.20
2022-09-24T07:25:21.501Z,88.36
2022-09-24T07:26:21.481Z,87.65
2022-09-24T07:27:21.487Z,87.14
2022-09-24T07:28:21.445Z,87.24
2022-09-24T07:29:21.438Z,87.04
2022-09-24T07:30:21.792Z,86.94
2022-09-24T07:31:21.452Z,87.24
2022-09-24T07:32:24.009Z,87.45
2022-09-24T07:33:21.375Z,87.35
2022-09-24T07:34:21.375Z,87.14
2022-09-24T07:35:21.377Z,87.14
2022-09-24T07:36:21.347Z,87.04
2022-09-24T07:37:21.319Z,87.04
2022-09-24T07:38:21.316Z,86.90
2022-09-24T07:39:21.297Z,86.59
2022-09-24T07:40:21.662Z,86.59
2022-09-24T07:41:21.273Z,86.90
2022-09-24T07:42:21.257Z,86.69
2022-09-24T07:43:21.246Z,86.80
2022-09-24T07:44:21.236Z,86.90
2022-09-24T07:45:21.556Z,87.16
2022-09-24T07:46:21.267Z,86.45
2022-09-24T07:47:21.205Z,86.65
2022-09-24T07:48:21.183Z,86.65
2022-09-24T07:49:21.165Z,86.82
2022-09-24T07:50:21.215Z,86.61
2022-09-24T07:51:21.133Z,86.31
2022-09-24T07:52:21.115Z,86.21
2022-09-24T07:53:21.147Z,85.66
2022-09-24T07:54:21.102Z,85.96
2022-09-24T07:55:21.073Z,85.96
2022-09-24T07:56:21.433Z,85.66
2022-09-24T07:57:21.062Z,85.86
2022-09-24T07:58:21.049Z,85.46
2022-09-24T07:59:21.035Z,85.31
2022-09-24T08:00:21.021Z,85.62
2022-09-24T08:01:21.500Z,85.21
2022-09-24T08:02:20.992Z,85.11
2022-09-24T08:03:21.018Z,85.07
2022-09-24T08:04:21.025Z,84.97
2022-09-24T08:05:20.958Z,85.07
2022-09-24T08:06:21.269Z,84.87
2022-09-24T08:07:20.924Z,85.38
2022-09-24T08:08:20.911Z,84.93
2022-09-24T08:09:20.903Z,84.83
2022-09-24T08:10:20.888Z,84.12
2022-09-24T08:11:21.313Z,83.91
2022-09-24T08:12:20.885Z,84.18
2022-09-24T08:13:24.039Z,84.08
2022-09-24T08:14:21.831Z,83.87
2022-09-24T08:15:20.821Z,83.83
2022-09-24T08:16:21.337Z,83.63
2022-09-24T08:17:20.792Z,82.92
2022-09-24T08:18:20.780Z,83.03
2022-09-24T08:19:20.770Z,83.29
2022-09-24T08:20:20.830Z,83.29
2022-09-24T08:21:21.060Z,82.82
2022-09-24T08:22:20.727Z,82.72
2022-09-24T08:23:20.723Z,83.17
2022-09-24T08:24:20.703Z,83.67
2022-09-24T08:25:20.690Z,84.22
2022-09-24T08:26:21.079Z,84.42
2022-09-24T08:27:20.665Z,84.12
2022-09-24T08:28:20.651Z,84.12
2022-09-24T08:29:20.647Z,84.22
2022-09-24T08:30:20.685Z,84.72
2022-09-24T08:31:20.664Z,84.63
2022-09-24T08:32:20.591Z,84.38
2022-09-24T08:33:20.588Z,84.18
2022-09-24T08:34:20.626Z,84.18
2022-09-24T08:35:20.560Z,83.77
2022-09-24T08:36:20.923Z,83.26
2022-09-24T08:37:20.528Z,83.47
2022-09-24T08:38:20.517Z,83.47
2022-09-24T08:39:20.517Z,83.83
2022-09-24T08:40:20.601Z,83.43
2022-09-24T08:41:20.907Z,83.73
2022-09-24T08:42:20.470Z,83.39
2022-09-24T08:43:20.459Z,82.95
2022-09-24T08:44:20.432Z,82.84
2022-09-24T08:45:20.427Z,82.64
2022-09-24T08:46:20.922Z,82.30
2022-09-24T08:47:20.406Z,82.70
2022-09-24T08:48:20.385Z,82.87
2022-09-24T08:49:20.369Z,82.36
2022-09-24T08:50:27.347Z,83.07
2022-09-24T08:51:32.765Z,82.36
2022-09-24T08:52:21.325Z,81.65
2022-09-24T08:53:20.312Z,81.65
2022-09-24T08:54:20.324Z,81.85
2022-09-24T08:55:20.296Z,81.76
2022-09-24T08:56:20.732Z,81.85
2022-09-24T08:57:20.263Z,82.97
2022-09-24T08:58:20.256Z,83.07
2022-09-24T08:59:20.252Z,82.53
2022-09-24T09:00:20.233Z,81.11
2022-09-24T09:01:20.719Z,81.41
2022-09-24T09:02:20.297Z,82.12
2022-09-24T09:03:20.196Z,81.51
2022-09-24T09:04:20.171Z,81.92
2022-09-24T09:05:20.180Z,82.28
2022-09-24T09:06:20.453Z,81.62
2022-09-24T09:07:20.140Z,81.68
2022-09-24T09:08:45.143Z,81.71
2022-09-24T09:09:21.332Z,82.02
2022-09-24T09:10:20.101Z,81.88
2022-09-24T09:11:20.594Z,81.98
2022-09-24T09:12:20.090Z,82.18
2022-09-24T09:13:20.059Z,81.78
2022-09-24T09:14:20.051Z,81.54
2022-09-24T09:15:20.022Z,81.34
2022-09-24T09:16:20.534Z,80.90
2022-09-24T09:17:20.005Z,80.59
2022-09-24T09:18:19.988Z,80.29
2022-09-24T09:19:19.992Z,81.20
2022-09-24T09:20:19.970Z,81.30
2022-09-24T09:21:20.373Z,80.76
2022-09-24T09:22:19.942Z,80.08
2022-09-24T09:23:19.934Z,80.69
2022-09-24T09:24:19.903Z,80.49
2022-09-24T09:25:19.941Z,81.50
2022-09-24T09:26:20.225Z,80.69
2022-09-24T09:27:19.870Z,80.99
2022-09-24T09:28:19.878Z,80.90
2022-09-24T09:29:19.851Z,80.90
2022-09-24T09:30:19.824Z,80.99
2022-09-24T09:31:19.934Z,81.10
2022-09-24T09:32:20.120Z,80.99
2022-09-24T09:33:19.799Z,80.90
2022-09-24T09:34:19.781Z,80.62
2022-09-24T09:35:19.779Z,79.91
2022-09-24T09:36:19.751Z,79.61
2022-09-24T09:37:25.527Z,79.61
2022-09-24T09:38:20.721Z,79.67
2022-09-24T09:39:19.720Z,79.87
2022-09-24T09:40:19.772Z,78.92
2022-09-24T09:41:19.686Z,78.76
2022-09-24T09:42:19.799Z,78.66
2022-09-24T09:43:19.653Z,78.66
2022-09-24T09:44:19.640Z,78.72
2022-09-24T09:45:23.002Z,78.52
2022-09-24T09:46:20.697Z,78.52
2022-09-24T09:47:20.059Z,78.08
2022-09-24T09:48:19.586Z,78.35
2022-09-24T09:49:19.592Z,77.24
2022-09-24T09:50:19.571Z,76.97
2022-09-24T09:51:22.407Z,77.55
2022-09-24T09:52:19.869Z,77.24
2022-09-24T09:53:19.552Z,76.80
2022-09-24T09:54:19.520Z,76.50
2022-09-24T09:55:19.500Z,77.00
2022-09-24T09:56:19.515Z,76.20
2022-09-24T09:57:19.906Z,76.67
2022-09-24T09:58:19.469Z,76.26
2022-09-24T09:59:19.460Z,76.03
2022-09-24T10:00:19.429Z,75.76
2022-09-24T10:01:19.429Z,76.56
2022-09-24T10:02:19.787Z,76.16
2022-09-24T10:03:19.451Z,75.46
2022-09-24T10:04:19.378Z,75.79
2022-09-24T10:05:22.201Z,76.67
2022-09-24T10:06:20.349Z,76.90
2022-09-24T10:07:19.759Z,76.60
2022-09-24T10:08:19.330Z,76.80
2022-09-24T10:09:19.318Z,77.00
2022-09-24T10:10:19.308Z,77.20
2022-09-24T10:11:19.289Z,77.34
2022-09-24T10:12:19.372Z,77.40
2022-09-24T10:13:19.260Z,77.11
2022-09-24T10:14:19.259Z,77.40
2022-09-24T10:15:19.240Z,77.20
2022-09-24T10:16:19.284Z,77.20
2022-09-24T10:17:19.580Z,77.27
2022-09-24T10:18:19.201Z,76.87
2022-09-24T10:19:19.196Z,76.87
2022-09-24T10:20:19.171Z,76.87
2022-09-24T10:21:19.158Z,77.00
2022-09-24T10:22:19.490Z,77.61
2022-09-24T10:23:19.153Z,78.05
2022-09-24T10:24:19.120Z,78.39
2022-09-24T10:25:19.159Z,78.89
2022-09-24T10:26:19.097Z,79.33
2022-09-24T10:27:19.388Z,79.93
2022-09-24T10:28:19.054Z,79.63
2022-09-24T10:29:19.047Z,79.33
2022-09-24T10:30:19.056Z,79.43
2022-09-24T10:31:19.097Z,79.23
2022-09-24T10:32:19.057Z,79.33
2022-09-24T10:33:19.005Z,79.13
2022-09-24T10:34:18.981Z,79.23
2022-09-24T10:35:19.000Z,79.33
2022-09-24T10:36:18.957Z,79.23
2022-09-24T10:37:19.003Z,79.73
2022-09-24T10:38:18.966Z,79.83
2022-09-24T10:39:18.925Z,79.73
2022-09-24T10:40:27.005Z,79.83
2022-09-24T10:41:25.914Z,79.43
2022-09-24T10:42:25.919Z,79.57
2022-09-24T10:43:18.868Z,80.18
2022-09-24T10:44:18.846Z,80.07
2022-09-24T10:45:18.848Z,79.77
2022-09-24T10:46:18.848Z,80.18
2022-09-24T10:47:18.847Z,80.68
2022-09-24T10:48:18.809Z,80.33
2022-09-24T10:49:18.923Z,80.13
2022-09-24T10:50:18.788Z,80.04
2022-09-24T10:51:18.769Z,79.80
2022-09-24T10:52:19.058Z,79.93
2022-09-24T10:53:18.729Z,80.20
2022-09-24T10:54:18.721Z,80.30
2022-09-24T10:55:18.706Z,80.80
2022-09-24T10:56:18.686Z,79.86
2022-09-24T10:57:19.069Z,79.80
2022-09-24T10:58:18.667Z,80.30
2022-09-24T10:59:18.667Z,81.21
2022-09-24T11:00:18.646Z,80.60
2022-09-24T11:01:18.706Z,81.24
2022-09-24T11:02:18.757Z,81.04
2022-09-24T11:03:18.724Z,81.41
2022-09-24T11:04:18.607Z,80.80
2022-09-24T11:05:18.581Z,81.04
2022-09-24T11:06:18.578Z,81.51
2022-09-24T11:07:18.984Z,80.97
2022-09-24T11:08:18.546Z,80.83
2022-09-24T11:09:18.547Z,79.46
2022-09-24T11:10:18.516Z,80.57
2022-09-24T11:11:18.507Z,79.92
2022-09-24T11:12:18.506Z,80.83
2022-09-24T11:13:18.919Z,80.02
2022-09-24T11:14:18.476Z,79.08
2022-09-24T11:15:18.446Z,80.15
2022-09-24T11:16:18.474Z,80.05
2022-09-24T11:17:18.426Z,79.81
2022-09-24T11:18:18.443Z,80.11
2022-09-24T11:19:18.407Z,78.97
2022-09-24T11:20:18.376Z,78.97
2022-09-24T11:21:18.365Z,78.36
2022-09-24T11:22:18.367Z,77.26
2022-09-24T11:23:18.673Z,78.06
2022-09-24T11:24:19.206Z,77.86
2022-09-24T11:25:18.317Z,78.20
2022-09-24T11:26:18.394Z,78.54
2022-09-24T11:27:18.294Z,79.04
2022-09-24T11:28:18.365Z,79.14
2022-09-24T11:29:25.278Z,78.44
2022-09-24T11:30:18.241Z,79.04
2022-09-24T11:31:25.342Z,80.65
2022-09-24T11:32:25.234Z,79.24
2022-09-24T11:33:22.712Z,79.30
2022-09-24T11:34:18.188Z,78.60
2022-09-24T11:35:18.176Z,78.66
2022-09-24T11:36:18.166Z,78.16
2022-09-24T11:37:18.177Z,77.96
2022-09-24T11:38:18.183Z,78.27
2022-09-24T11:39:18.129Z,77.70
2022-09-24T11:40:18.153Z,79.21
2022-09-24T11:41:18.116Z,79.81
2022-09-24T11:42:18.085Z,78.00
2022-09-24T11:43:18.524Z,79.30
2022-09-24T11:44:18.064Z,79.44
2022-09-24T11:45:18.062Z,79.41
2022-09-24T11:46:18.077Z,79.10
2022-09-24T11:47:18.034Z,78.27
2022-09-24T11:48:18.327Z,78.86
2022-09-24T11:49:18.021Z,78.12
2022-09-24T11:50:17.996Z,75.71
2022-09-24T11:51:17.977Z,74.31
2022-09-24T11:52:17.956Z,74.71
2022-09-24T11:53:18.227Z,74.41
2022-09-24T11:54:17.935Z,73.67
2022-09-24T11:55:17.924Z,73.57
2022-09-24T11:56:17.908Z,74.24
2022-09-24T11:57:17.894Z,74.24
2022-09-24T11:58:18.316Z,74.80
2022-09-24T11:59:17.862Z,74.01
2022-09-24T12:00:17.914Z,74.44
2022-09-24T12:01:17.854Z,74.74
2022-09-24T12:02:17.934Z,75.04
2022-09-24T12:03:22.161Z,75.54
2022-09-24T12:04:18.827Z,74.64
2022-09-24T12:05:17.802Z,74.74
2022-09-24T12:06:17.777Z,73.94
2022-09-24T12:07:17.765Z,74.51
2022-09-24T12:08:18.064Z,73.20
2022-09-24T12:09:17.751Z,74.60
2022-09-24T12:10:17.733Z,73.50
2022-09-24T12:11:17.716Z,73.00
2022-09-24T12:12:17.694Z,72.90
2022-09-24T12:13:18.016Z,73.50
2022-09-24T12:14:17.683Z,73.54
2022-09-24T12:15:17.661Z,74.04
2022-09-24T12:16:17.674Z,74.27
2022-09-24T12:17:17.655Z,74.48
2022-09-24T12:18:18.070Z,74.34
2022-09-24T12:19:17.612Z,73.07
2022-09-24T12:20:17.598Z,73.97
2022-09-24T12:21:17.583Z,73.81
2022-09-24T12:22:17.575Z,74.21
2022-09-24T12:23:17.875Z,74.81
2022-09-24T12:24:17.544Z,75.31
2022-09-24T12:25:17.543Z,74.91
2022-09-24T12:26:17.522Z,75.05
2022-09-24T12:27:17.514Z,76.35
2022-09-24T12:28:17.942Z,76.02
2022-09-24T12:29:17.488Z,76.12
2022-09-24T12:30:17.476Z,76.21
2022-09-24T12:31:17.486Z,75.82
2022-09-24T12:32:17.447Z,76.21
2022-09-24T12:33:17.754Z,75.42
2022-09-24T12:34:17.412Z,74.35
2022-09-24T12:35:17.415Z,75.72
2022-09-24T12:36:17.383Z,77.33
2022-09-24T12:37:17.373Z,76.32
2022-09-24T12:38:17.804Z,75.79
2022-09-24T12:39:17.354Z,74.72
2022-09-24T12:40:17.428Z,75.22
2022-09-24T12:41:17.325Z,75.72
2022-09-24T12:42:17.312Z,74.52
2022-09-24T12:43:17.733Z,74.65
2022-09-24T12:44:21.891Z,76.16
2022-09-24T12:45:18.290Z,75.86
2022-09-24T12:46:17.300Z,76.06
2022-09-24T12:47:17.253Z,76.70
2022-09-24T12:48:17.583Z,77.61
2022-09-24T12:49:17.219Z,78.01
2022-09-24T12:50:17.262Z,77.11
2022-09-24T12:51:17.189Z,77.70
2022-09-24T12:52:17.222Z,77.50